createdAt,value
2018-12-22T00:01:18.260Z,7.80
2018-12-22T00:06:20.750Z,8.27
2018-12-22T00:11:23.212Z,8.10
2018-12-22T00:16:25.766Z,7.53
2018-12-22T00:21:28.285Z,7.47
2018-12-22T00:26:30.801Z,7.60
2018-12-22T00:31:33.345Z,7.60
2018-12-22T00:36:35.832Z,7.03
2018-12-22T00:41:38.373Z,6.60
2018-12-22T00:46:41.204Z,7.33
2018-12-22T00:51:43.834Z,6.77
2018-12-22T00:56:46.302Z,6.90
2018-12-22T01:01:48.764Z,7.27
2018-12-22T01:06:52.711Z,7.07
2018-12-22T01:11:55.423Z,6.70
2018-12-22T01:16:58.132Z,6.60
2018-12-22T01:22:00.596Z,6.53
2018-12-22T01:27:03.209Z,6.57
2018-12-22T01:32:05.729Z,6.00
2018-12-22T01:37:08.223Z,6.17
2018-12-22T01:42:10.712Z,6.20
2018-12-22T01:47:13.233Z,5.93
2018-12-22T01:52:15.745Z,5.70
2018-12-22T01:57:18.233Z,5.60
2018-12-22T02:02:20.909Z,5.20
2018-12-22T02:07:23.373Z,5.30
2018-12-22T02:12:26.512Z,5.20
2018-12-22T02:17:28.978Z,5.40
2018-12-22T02:22:31.444Z,5.60
2018-12-22T02:27:33.928Z,5.40
2018-12-22T02:32:36.503Z,5.03
2018-12-22T02:37:38.970Z,5.50
2018-12-22T02:42:41.442Z,5.23
2018-12-22T02:47:43.941Z,5.07
2018-12-22T02:52:46.398Z,4.90
2018-12-22T02:57:48.864Z,4.60
2018-12-22T03:02:51.628Z,4.93
2018-12-22T03:07:54.641Z,5.10
2018-12-22T03:12:57.184Z,4.83
2018-12-22T03:17:59.644Z,4.53
2018-12-22T03:23:02.130Z,4.10
2018-12-22T03:28:04.647Z,4.33
2018-12-22T03:33:07.106Z,4.13
2018-12-22T03:38:09.936Z,4.70
2018-12-22T03:43:12.398Z,4.20
2018-12-22T03:48:14.884Z,4.30
2018-12-22T03:53:17.340Z,4.00
2018-12-22T03:58:19.800Z,3.87
2018-12-22T04:03:22.265Z,4.30
2018-12-22T04:08:24.768Z,4.37
2018-12-22T04:13:27.260Z,3.57
2018-12-22T04:18:29.726Z,4.17
2018-12-22T04:23:32.199Z,4.30
2018-12-22T04:28:34.656Z,4.00
2018-12-22T04:33:37.112Z,3.60
2018-12-22T04:38:39.567Z,3.67
2018-12-22T04:43:42.033Z,3.77
2018-12-22T04:48:44.496Z,3.77
2018-12-22T04:53:46.969Z,4.07
2018-12-22T04:58:49.434Z,3.70
2018-12-22T05:03:51.931Z,3.37
2018-12-22T05:08:54.390Z,3.50
2018-12-22T05:13:56.866Z,3.50
2018-12-22T05:18:59.337Z,3.33
2018-12-22T05:24:01.829Z,3.57
2018-12-22T05:29:04.289Z,2.93
2018-12-22T05:34:06.757Z,3.10
2018-12-22T05:39:09.440Z,3.53
2018-12-22T05:44:11.896Z,2.90
2018-12-22T05:49:14.432Z,2.80
2018-12-22T05:54:16.941Z,3.07
2018-12-22T05:59:19.396Z,2.90
2018-12-22T06:04:21.891Z,2.90
2018-12-22T06:09:24.701Z,3.27
2018-12-22T06:14:27.301Z,2.70
2018-12-22T06:19:29.769Z,2.80
2018-12-22T06:24:32.232Z,2.90
2018-12-22T06:29:34.698Z,2.90
2018-12-22T06:34:37.179Z,2.97
2018-12-22T06:39:40.208Z,2.90
2018-12-22T06:44:42.692Z,2.77
2018-12-22T06:49:45.200Z,2.67
2018-12-22T06:54:47.669Z,2.80
2018-12-22T06:59:52.012Z,2.80
2018-12-22T07:04:54.640Z,2.50
2018-12-22T07:09:57.129Z,2.80
2018-12-22T07:14:59.605Z,2.50
2018-12-22T07:20:02.557Z,3.00
2018-12-22T07:25:05.745Z,2.50
2018-12-22T07:30:10.056Z,2.67
2018-12-22T07:35:12.604Z,2.40
2018-12-22T07:40:15.116Z,2.43
2018-12-22T07:45:17.780Z,2.73
2018-12-22T07:50:20.301Z,2.20
2018-12-22T07:55:22.978Z,2.13
2018-12-22T08:00:25.468Z,2.20
2018-12-22T08:05:28.249Z,2.10
2018-12-22T08:10:30.745Z,1.97
2018-12-22T08:15:33.353Z,2.27
2018-12-22T08:20:35.817Z,2.00
2018-12-22T08:25:38.404Z,2.40
2018-12-22T08:30:43.707Z,1.83
2018-12-22T08:35:45.404Z,1.77
2018-12-22T08:40:47.870Z,2.93
2018-12-22T08:45:50.341Z,3.00
2018-12-22T08:50:52.809Z,3.20
2018-12-22T08:55:55.280Z,3.03
2018-12-22T09:00:57.772Z,3.33
2018-12-22T09:06:00.227Z,4.93
2018-12-22T09:11:02.689Z,9.03
2018-12-22T09:16:05.245Z,13.47
2018-12-22T09:21:07.768Z,16.57
2018-12-22T09:26:10.599Z,17.43
2018-12-22T09:31:13.092Z,17.13
2018-12-22T09:36:15.568Z,17.10
2018-12-22T09:41:18.074Z,15.60
2018-12-22T09:46:20.583Z,15.73
2018-12-22T09:51:23.054Z,16.43
2018-12-22T09:56:25.562Z,16.60
2018-12-22T10:01:28.296Z,16.03
2018-12-22T10:06:30.861Z,15.00
2018-12-22T10:11:33.372Z,14.70
2018-12-22T10:16:36.029Z,15.23
2018-12-22T10:21:38.503Z,13.87
2018-12-22T10:26:41.788Z,15.40
2018-12-22T10:31:44.261Z,13.77
2018-12-22T10:36:46.760Z,14.50
2018-12-22T10:41:49.302Z,12.67
2018-12-22T10:46:51.893Z,14.63
2018-12-22T10:51:54.369Z,12.77
2018-12-22T10:56:56.852Z,13.90
2018-12-22T11:01:59.568Z,12.63
2018-12-22T11:07:02.060Z,13.27
2018-12-22T11:12:04.559Z,13.70
2018-12-22T11:17:07.149Z,11.93
2018-12-22T11:22:10.565Z,12.77
2018-12-22T11:27:13.138Z,11.43
2018-12-22T11:32:15.627Z,12.60
2018-12-22T11:37:18.121Z,12.43
2018-12-22T11:42:20.584Z,12.03
2018-12-22T11:47:26.902Z,12.77
2018-12-22T11:52:29.423Z,11.40
2018-12-22T11:57:32.080Z,11.47
2018-12-22T12:02:34.645Z,11.20
2018-12-22T12:07:37.196Z,11.43
2018-12-22T12:12:40.274Z,11.80
2018-12-22T12:17:57.649Z,10.83
2018-12-22T12:23:00.148Z,10.43
2018-12-22T12:28:02.616Z,10.93
2018-12-22T12:33:05.264Z,9.90
2018-12-22T12:38:07.904Z,9.73
2018-12-22T12:43:10.596Z,9.93
2018-12-22T12:48:13.092Z,9.70
2018-12-22T12:53:16.304Z,9.40
2018-12-22T12:58:18.792Z,9.60
2018-12-22T13:03:21.316Z,9.90
2018-12-22T13:08:23.780Z,9.50
2018-12-22T13:13:31.084Z,8.97
2018-12-22T13:18:33.587Z,9.13
2018-12-22T13:23:36.424Z,9.37
2018-12-22T13:28:38.978Z,9.67
2018-12-22T13:33:41.515Z,8.87
2018-12-22T13:38:44.144Z,8.77
2018-12-22T13:43:46.650Z,9.07
2018-12-22T13:48:49.497Z,8.13
2018-12-22T13:53:52.104Z,8.43
2018-12-22T13:58:54.739Z,8.73
2018-12-22T14:03:57.244Z,8.80
2018-12-22T14:08:59.867Z,8.27
2018-12-22T14:14:03.046Z,8.47
2018-12-22T14:19:05.527Z,9.13
2018-12-22T14:24:11.708Z,8.33
2018-12-22T14:29:14.302Z,8.20
2018-12-22T14:34:20.273Z,8.33
2018-12-22T14:39:22.764Z,9.07
2018-12-22T14:44:26.080Z,7.60
2018-12-22T14:49:28.573Z,8.43
2018-12-22T14:54:31.057Z,7.90
2018-12-22T14:59:33.654Z,8.03
2018-12-22T15:04:36.245Z,8.20
2018-12-22T15:09:39.444Z,8.13
2018-12-22T15:14:41.997Z,7.53
2018-12-22T15:19:44.544Z,7.63
2018-12-22T15:24:47.016Z,8.07
2018-12-22T15:29:49.518Z,7.37
2018-12-22T15:34:52.020Z,6.63
2018-12-22T15:39:54.507Z,7.80
2018-12-22T15:44:57.108Z,6.77
2018-12-22T15:50:00.620Z,6.90
2018-12-22T15:55:04.346Z,7.47
2018-12-22T16:00:12.977Z,6.90
2018-12-22T16:05:15.570Z,7.30
2018-12-22T16:10:18.060Z,7.00
2018-12-22T16:15:23.088Z,6.53
2018-12-22T16:20:26.425Z,7.00
2018-12-22T16:25:28.924Z,6.13
2018-12-22T16:30:35.250Z,6.30
2018-12-22T16:35:37.790Z,6.33
2018-12-22T16:40:40.289Z,3.87
2018-12-22T16:45:42.797Z,4.37
2018-12-22T16:50:45.368Z,4.50
2018-12-22T16:55:47.964Z,4.10
2018-12-22T17:06:22.090Z,4.10
2018-12-22T17:11:24.588Z,4.00
2018-12-22T17:16:27.123Z,3.80
2018-12-22T17:21:31.820Z,3.97
2018-12-22T17:26:34.355Z,3.47
2018-12-22T17:31:37.149Z,3.10
2018-12-22T17:36:39.666Z,3.43
2018-12-22T17:41:42.246Z,3.07
2018-12-22T17:46:44.767Z,3.67
2018-12-22T17:51:47.320Z,3.33
2018-12-22T17:56:50.130Z,3.60
2018-12-22T18:01:52.676Z,2.90
2018-12-22T18:06:55.250Z,3.33
2018-12-22T18:11:57.819Z,3.00
2018-12-22T18:17:00.364Z,2.80
2018-12-22T18:22:03.812Z,2.50
2018-12-22T18:27:06.408Z,2.80
2018-12-22T18:32:09.005Z,2.53
2018-12-22T18:37:11.487Z,2.30
2018-12-22T18:42:14.227Z,2.50
2018-12-22T18:47:16.784Z,2.50
2018-12-22T18:52:19.276Z,2.50
2018-12-22T18:57:21.828Z,2.40
2018-12-22T19:02:24.357Z,2.20
2018-12-22T19:07:26.857Z,2.30
2018-12-22T19:12:29.383Z,1.90
2018-12-22T19:17:32.070Z,2.30
2018-12-22T19:22:34.636Z,1.80
2018-12-22T19:27:37.132Z,2.10
2018-12-22T19:32:39.938Z,2.00
2018-12-22T19:37:42.516Z,1.70
2018-12-22T19:42:45.017Z,2.00
2018-12-22T19:47:47.615Z,1.60
2018-12-22T19:52:50.196Z,1.50
2018-12-22T19:57:52.688Z,1.60
2018-12-22T20:02:55.247Z,1.30
2018-12-22T20:07:57.809Z,1.80
2018-12-22T20:13:00.370Z,1.53
2018-12-22T20:18:02.860Z,1.33
2018-12-22T20:23:05.352Z,1.53
2018-12-22T20:28:07.844Z,1.40
2018-12-22T20:33:10.345Z,1.50
2018-12-22T20:38:13.136Z,1.90
2018-12-22T20:43:15.624Z,1.60
2018-12-22T20:48:18.153Z,1.80
2018-12-22T20:53:20.733Z,1.60
2018-12-22T20:58:23.315Z,1.30
2018-12-22T21:03:33.397Z,1.43
2018-12-22T21:08:36.149Z,1.47
2018-12-22T21:13:38.779Z,1.13
2018-12-22T21:18:41.240Z,1.37
2018-12-22T21:23:43.735Z,1.30
2018-12-22T21:28:46.200Z,1.30
2018-12-22T21:33:48.739Z,1.47
2018-12-22T21:38:51.208Z,1.17
2018-12-22T21:43:54.130Z,1.67
2018-12-22T21:48:56.604Z,1.37
2018-12-22T21:53:59.063Z,1.80
2018-12-22T21:59:01.596Z,1.33
2018-12-22T22:04:04.085Z,1.23
2018-12-22T22:09:06.581Z,1.27
2018-12-22T22:14:09.192Z,1.40
2018-12-22T22:19:11.780Z,1.53
2018-12-22T22:24:14.248Z,1.03
2018-12-22T22:29:16.716Z,1.50
2018-12-22T22:34:19.269Z,1.30
2018-12-22T22:39:22.312Z,1.13
2018-12-22T22:44:24.806Z,1.30
2018-12-22T22:49:27.286Z,1.43
2018-12-22T22:54:29.745Z,1.23
2018-12-22T22:59:32.231Z,1.27
2018-12-22T23:04:34.716Z,1.30
2018-12-22T23:09:37.208Z,1.73
2018-12-22T23:14:39.684Z,1.17
2018-12-22T23:19:42.401Z,1.40
2018-12-22T23:24:44.892Z,1.80
2018-12-22T23:29:47.465Z,1.10
2018-12-22T23:34:50.018Z,1.30
2018-12-22T23:39:52.480Z,1.20
2018-12-22T23:44:54.968Z,1.03
2018-12-22T23:49:57.809Z,1.20
2018-12-22T23:55:00.824Z,1.30
